Time;durP1;ratioP1;P1;durP2;ratioP2;P2;SDS_P1;SDS_P2;PMS_P1;PMS_P2;Temp;Humidity;BMP_temperature;BMP_pressure;BME280_temperature;BME280_humidity;BME280_pressure;Samples;Min_cycle;Max_cycle;Signal;HPM_P1;HPM_P2
2023/08/29 00:02:08;;;;;;;4.43;2.55;;;;;;;25.04;69.29;98239.16;4474041;32;34306;-77
2023/08/29 00:04:37;;;;;;;4.28;2.35;;;;;;;25.17;68.27;98235.31;4460154;32;33435;-76
2023/08/29 00:07:06;;;;;;;4.03;2.10;;;;;;;25.21;68.06;98226.09;4460107;32;32974;-77
2023/08/29 00:09:35;;;;;;;3.87;2.10;;;;;;;25.34;67.10;98234.53;4478240;32;33857;-76
2023/08/29 00:12:05;;;;;;;4.35;2.25;;;;;;;25.33;67.25;98235.53;4465452;32;33632;-77
2023/08/29 00:14:33;;;;;;;4.62;2.42;;;;;;;25.37;67.16;98236.91;4465851;32;33654;-77
2023/08/29 00:17:05;;;;;;;3.37;1.73;;;;;;;25.27;67.15;98236.97;4460016;32;33689;-77
2023/08/29 00:19:34;;;;;;;4.57;2.35;;;;;;;25.30;67.07;98246.47;4460847;32;34491;-76
2023/08/29 00:22:03;;;;;;;3.22;1.65;;;;;;;25.31;66.63;98232.19;4461008;32;34699;-76
2023/08/29 00:24:32;;;;;;;4.30;1.83;;;;;;;25.11;67.62;98229.62;4467332;32;34114;-77
2023/08/29 00:27:01;;;;;;;5.95;2.28;;;;;;;25.11;66.79;98248.19;4468478;32;34393;-76
2023/08/29 00:29:29;;;;;;;4.03;2.00;;;;;;;25.06;66.82;98253.09;4460164;32;33423;-76
2023/08/29 00:31:58;;;;;;;3.03;1.80;;;;;;;25.21;65.82;98257.97;4468049;32;33710;-77
2023/08/29 00:34:29;;;;;;;3.50;2.05;;;;;;;25.21;65.91;98265.91;4468334;32;34224;-76
2023/08/29 00:36:58;;;;;;;4.15;2.03;;;;;;;25.12;66.72;98280.88;4469372;32;34376;-76
2023/08/29 00:39:26;;;;;;;4.12;2.12;;;;;;;25.25;66.52;98293.81;4467415;32;33438;-77
2023/08/29 00:41:55;;;;;;;3.35;1.90;;;;;;;25.22;67.15;98300.25;4459814;32;34340;-78
2023/08/29 00:44:24;;;;;;;3.67;1.98;;;;;;;25.24;66.80;98300.94;4469388;32;33387;-76
2023/08/29 00:46:53;;;;;;;3.42;1.80;;;;;;;25.34;66.08;98315.00;4476638;32;33378;-77
2023/08/29 00:49:23;;;;;;;6.62;2.17;;;;;;;25.43;65.04;98305.31;4460970;32;33519;-76
2023/08/29 00:51:54;;;;;;;4.03;1.77;;;;;;;25.16;65.98;98295.53;4458370;32;35940;-76
2023/08/29 00:54:23;;;;;;;4.47;2.15;;;;;;;25.26;65.50;98306.94;4464329;32;33157;-77
2023/08/29 00:56:51;;;;;;;3.47;1.35;;;;;;;25.37;65.31;98329.81;4470370;32;32745;-76
2023/08/29 00:59:21;;;;;;;3.03;1.87;;;;;;;25.38;65.17;98338.63;4466817;32;33708;-77
2023/08/29 01:01:50;;;;;;;2.40;1.48;;;;;;;25.32;65.82;98354.16;4461433;32;33909;-77
2023/08/29 01:04:19;;;;;;;3.65;1.77;;;;;;;25.29;66.12;98353.59;4471557;32;34098;-77
2023/08/29 01:06:48;;;;;;;3.70;1.87;;;;;;;25.32;65.82;98355.94;4468752;32;33121;-77
2023/08/29 01:09:18;;;;;;;3.72;1.85;;;;;;;25.26;65.54;98362.69;4471445;32;34628;-77
2023/08/29 01:11:53;;;;;;;4.68;1.65;;;;;;;25.35;65.39;98374.25;4458312;32;33703;-77
2023/08/29 01:14:27;;;;;;;4.57;2.42;;;;;;;25.11;66.54;98356.16;4468701;32;34876;-77
2023/08/29 01:17:03;;;;;;;4.62;1.90;;;;;;;25.39;65.08;98348.25;4466118;32;34317;-77
2023/08/29 01:19:51;;;;;;;3.42;1.80;;;;;;;25.37;63.19;98351.06;4466364;32;32993;-77
2023/08/29 01:22:28;;;;;;;3.65;2.17;;;;;;;25.47;62.83;98335.91;4482609;32;33594;-78
2023/08/29 01:25:11;;;;;;;5.30;2.00;;;;;;;25.21;64.75;98317.19;4471199;32;33558;-77
2023/08/29 01:27:44;;;;;;;3.62;1.73;;;;;;;24.99;64.56;98294.47;4459176;32;33982;-76
2023/08/29 01:30:14;;;;;;;5.97;3.22;;;;;;;24.67;66.05;98298.34;4464102;32;33657;-77
2023/08/29 01:32:44;;;;;;;5.53;3.35;;;;;;;24.97;64.65;98301.75;4460004;32;33561;-77
2023/08/29 01:35:15;;;;;;;3.78;2.22;;;;;;;25.19;64.00;98292.59;4469768;32;33422;-76
2023/08/29 01:37:44;;;;;;;4.18;2.30;;;;;;;25.00;64.24;98282.88;4459320;32;32535;-77
2023/08/29 01:40:13;;;;;;;4.72;2.30;;;;;;;24.83;65.81;98276.50;4459854;32;33566;-77
2023/08/29 01:42:44;;;;;;;3.77;2.03;;;;;;;25.02;64.13;98272.94;4459689;32;36258;-77
2023/08/29 01:45:13;;;;;;;3.47;1.77;;;;;;;24.86;65.11;98264.78;4470359;32;33952;-77
2023/08/29 01:47:42;;;;;;;4.60;2.28;;;;;;;24.85;65.86;98253.34;4463198;32;34885;-77
2023/08/29 01:50:12;;;;;;;3.47;1.95;;;;;;;24.77;66.04;98250.59;4463036;32;34422;-78
2023/08/29 01:52:42;;;;;;;4.62;2.35;;;;;;;24.66;66.26;98243.62;4466852;32;33189;-77
2023/08/29 01:55:12;;;;;;;;;;;;;;;24.10;69.96;98244.44;4464293;32;33714;-77
2023/08/29 01:57:45;;;;;;;3.37;2.03;;;;;;;24.43;68.58;98255.56;4465412;32;31073;-78
2023/08/29 02:00:15;;;;;;;4.05;1.98;;;;;;;24.41;68.31;98254.84;4464538;32;33535;-78
2023/08/29 02:02:43;;;;;;;3.92;1.50;;;;;;;24.65;67.32;98249.94;4464035;32;33302;-77
2023/08/29 02:05:12;;;;;;;3.22;1.95;;;;;;;24.75;66.13;98249.06;4472187;32;33764;-77
2023/08/29 02:07:41;;;;;;;3.87;1.87;;;;;;;24.71;66.11;98267.06;4479838;32;33757;-76
2023/08/29 02:10:11;;;;;;;5.60;2.08;;;;;;;24.82;66.08;98285.47;4464794;31;33440;-78
2023/08/29 02:12:43;;;;;;;4.85;2.50;;;;;;;24.66;66.84;98307.28;4463322;32;33962;-78
2023/08/29 02:15:14;;;;;;;4.10;2.03;;;;;;;24.42;67.97;98307.72;4461896;32;33735;-77
2023/08/29 02:17:43;;;;;;;3.42;1.77;;;;;;;24.39;68.33;98304.53;4463120;32;32278;-77
2023/08/29 02:20:13;;;;;;;3.87;1.95;;;;;;;24.77;66.41;98294.84;4466323;32;33494;-77
2023/08/29 02:22:43;;;;;;;4.50;2.70;;;;;;;24.84;66.39;98288.81;4467104;32;33103;-77
2023/08/29 02:25:11;;;;;;;3.40;1.95;;;;;;;24.91;66.01;98279.28;4461878;31;32573;-77
2023/08/29 02:27:40;;;;;;;4.75;2.10;;;;;;;24.78;66.91;98280.59;4462525;32;33945;-78
2023/08/29 02:30:11;;;;;;;4.68;2.25;;;;;;;24.89;66.63;98270.63;4472594;32;33437;-77
2023/08/29 02:32:42;;;;;;;4.60;2.00;;;;;;;24.16;69.74;98235.94;4460100;32;34453;-77
2023/08/29 02:35:11;;;;;;;4.12;1.98;;;;;;;24.52;68.85;98228.19;4465480;32;32269;-77
2023/08/29 02:37:40;;;;;;;3.92;2.28;;;;;;;24.83;66.66;98230.59;4460346;32;33583;-77
2023/08/29 02:40:10;;;;;;;4.25;2.28;;;;;;;24.77;66.77;98224.06;4468819;32;33467;-77
2023/08/29 02:42:39;;;;;;;3.58;2.20;;;;;;;24.22;69.73;98214.16;4467355;32;33763;-78
2023/08/29 02:45:08;;;;;;;4.20;2.35;;;;;;;24.53;68.73;98200.72;4460817;32;32398;-77
2023/08/29 02:47:37;;;;;;;3.55;2.08;;;;;;;24.71;67.40;98216.69;4459801;32;34155;-77
2023/08/29 02:50:08;;;;;;;4.07;1.98;;;;;;;24.72;66.82;98215.72;4464185;32;34604;-77
2023/08/29 02:52:37;;;;;;;3.80;1.90;;;;;;;24.50;66.98;98216.91;4465443;32;33650;-78
2023/08/29 02:55:07;;;;;;;3.40;2.03;;;;;;;24.72;66.57;98220.16;4471279;32;33730;-77
2023/08/29 02:57:36;;;;;;;2.37;1.52;;;;;;;24.83;66.17;98226.13;4460421;32;33250;-77
2023/08/29 03:00:10;;;;;;;5.60;2.80;;;;;;;24.60;67.39;98217.72;4459946;32;33551;-77
2023/08/29 03:02:39;;;;;;;5.65;2.10;;;;;;;24.23;69.16;98223.75;4460399;32;34751;-77
2023/08/29 03:05:09;;;;;;;3.67;2.03;;;;;;;24.42;67.98;98222.06;4466156;32;34537;-77
2023/08/29 03:07:38;;;;;;;5.12;2.70;;;;;;;24.63;66.36;98222.72;4468524;32;32628;-77
2023/08/29 03:10:08;;;;;;;2.78;1.50;;;;;;;24.64;65.85;98237.62;4467641;32;33886;-77
2023/08/29 03:12:37;;;;;;;4.80;2.03;;;;;;;24.47;66.31;98225.13;4463437;32;34666;-77
2023/08/29 03:15:07;;;;;;;2.12;1.37;;;;;;;24.45;66.60;98230.56;4468440;32;33329;-77
2023/08/29 03:17:36;;;;;;;3.65;1.67;;;;;;;24.40;66.28;98226.66;4463566;32;33031;-78
2023/08/29 03:20:06;;;;;;;3.97;1.70;;;;;;;24.23;67.10;98226.41;4471414;32;33536;-77
2023/08/29 03:22:38;;;;;;;3.70;2.15;;;;;;;24.03;66.42;98230.09;4459260;32;33690;-77
2023/08/29 03:25:08;;;;;;;6.87;2.50;;;;;;;24.17;65.77;98231.47;4462392;32;33713;-78
2023/08/29 03:27:37;;;;;;;2.40;1.55;;;;;;;23.94;66.19;98218.50;4466485;32;33272;-78
2023/08/29 03:30:07;;;;;;;2.97;1.48;;;;;;;24.24;65.51;98229.91;4464257;32;33857;-78
2023/08/29 03:32:36;;;;;;;2.87;1.65;;;;;;;24.28;65.58;98232.16;4470730;32;34571;-77
2023/08/29 03:35:07;;;;;;;3.58;1.95;;;;;;;24.37;65.16;98232.25;4463048;32;34211;-77
2023/08/29 03:37:40;;;;;;;4.53;1.98;;;;;;;23.89;66.81;98220.75;4466900;32;33426;-77
2023/08/29 03:40:10;;;;;;;2.72;1.60;;;;;;;23.82;66.86;98212.56;4459957;32;33248;-77
2023/08/29 03:42:39;;;;;;;3.73;1.93;;;;;;;23.98;66.48;98216.44;4459447;32;34805;-78
2023/08/29 03:45:09;;;;;;;3.30;1.62;;;;;;;23.84;67.24;98212.38;4463105;32;34782;-78
2023/08/29 03:47:39;;;;;;;3.28;2.05;;;;;;;23.82;66.80;98207.25;4461719;32;34299;-76
2023/08/29 03:50:11;;;;;;;3.40;1.65;;;;;;;24.21;65.17;98216.94;4471604;32;34373;-77
2023/08/29 03:52:41;;;;;;;3.00;1.65;;;;;;;24.34;64.99;98216.66;4464391;32;33795;-77
2023/08/29 03:55:10;;;;;;;4.65;2.08;;;;;;;24.26;64.67;98210.25;4460046;32;33165;-78
2023/08/29 03:57:39;;;;;;;3.25;1.92;;;;;;;23.73;66.90;98210.72;4465206;32;33098;-77
2023/08/29 04:00:10;;;;;;;3.20;1.80;;;;;;;23.47;67.88;98205.13;4476782;32;33967;-77
2023/08/29 04:02:41;;;;;;;2.97;1.75;;;;;;;24.14;65.30;98206.09;4467087;32;34495;-77
2023/08/29 04:05:15;;;;;;;3.72;1.83;;;;;;;24.34;64.48;98209.53;4475850;32;34261;-77
2023/08/29 04:07:46;;;;;;;3.70;1.77;;;;;;;24.50;63.86;98216.91;4473852;32;32985;-77
2023/08/29 04:10:16;;;;;;;2.75;1.40;;;;;;;24.38;64.49;98218.88;4464001;32;34418;-77
2023/08/29 04:12:44;;;;;;;2.78;1.80;;;;;;;24.53;64.38;98219.28;4464957;32;33962;-77
2023/08/29 04:15:13;;;;;;;3.53;1.95;;;;;;;24.60;63.78;98217.72;4462967;32;33842;-77
2023/08/29 04:17:42;;;;;;;4.03;1.83;;;;;;;24.42;64.83;98236.12;4457611;32;33062;-77
2023/08/29 04:20:12;;;;;;;4.07;2.25;;;;;;;24.52;64.75;98228.19;4459385;32;33589;-77
2023/08/29 04:22:41;;;;;;;4.00;2.00;;;;;;;24.58;64.45;98235.56;4471823;32;33893;-78
2023/08/29 04:25:11;;;;;;;3.28;1.73;;;;;;;24.56;64.42;98244.66;4456898;32;33144;-77
2023/08/29 04:27:41;;;;;;;3.30;1.98;;;;;;;24.57;64.07;98251.62;4462880;32;32734;-77
2023/08/29 04:30:11;;;;;;;3.47;1.73;;;;;;;24.63;64.75;98251.88;4469360;32;32996;-77
2023/08/29 04:32:40;;;;;;;2.97;1.77;;;;;;;24.50;65.47;98254.03;4462352;32;33695;-77
2023/08/29 04:35:10;;;;;;;2.50;1.58;;;;;;;24.62;65.24;98246.72;4466315;32;33651;-77
2023/08/29 04:37:39;;;;;;;;;;;;;;;24.56;65.45;98258.75;4471940;32;33323;-76
2023/08/29 04:40:10;;;;;;;4.15;1.80;;;;;;;24.63;65.76;98253.69;4462323;32;34685;-77
2023/08/29 04:42:43;;;;;;;3.83;1.60;;;;;;;24.69;65.27;98243.38;4468542;32;33782;-78
2023/08/29 04:45:12;;;;;;;3.70;1.55;;;;;;;24.63;65.41;98243.94;4477139;32;33007;-78
2023/08/29 04:47:41;;;;;;;5.85;2.58;;;;;;;24.73;64.94;98254.50;4463190;32;33032;-78
2023/08/29 04:50:10;;;;;;;3.37;1.85;;;;;;;24.66;65.15;98266.66;4461457;32;34684;-78
2023/08/29 04:52:39;;;;;;;4.12;2.33;;;;;;;24.59;65.72;98271.69;4471461;32;34772;-77
2023/08/29 04:55:08;;;;;;;3.53;1.70;;;;;;;24.85;65.55;98273.72;4474463;32;34799;-78
2023/08/29 04:57:37;;;;;;;4.32;1.65;;;;;;;24.61;66.38;98271.56;4475628;32;32847;-77
2023/08/29 05:00:12;;;;;;;5.10;2.25;;;;;;;24.27;68.82;98270.22;4470374;32;35079;-78
2023/08/29 05:02:43;;;;;;;3.72;2.00;;;;;;;24.73;66.59;98280.19;4463412;32;33681;-78
2023/08/29 05:05:12;;;;;;;4.53;2.20;;;;;;;24.78;66.23;98277.94;4462910;32;33928;-78
2023/08/29 05:07:40;;;;;;;3.60;2.35;;;;;;;24.77;66.63;98294.84;4478989;32;34083;-77
2023/08/29 05:10:10;;;;;;;4.32;2.65;;;;;;;24.88;65.68;98287.50;4463330;32;33633;-77
2023/08/29 05:12:41;;;;;;;3.55;1.75;;;;;;;24.74;65.74;98293.28;4464431;32;33990;-78
2023/08/29 05:15:11;;;;;;;;;;;;;;;24.99;64.07;98296.31;4465208;32;34562;-78
2023/08/29 05:17:40;;;;;;;4.70;2.30;;;;;;;24.86;64.76;98307.22;4463628;32;34133;-78
2023/08/29 05:20:10;;;;;;;2.97;1.70;;;;;;;24.62;66.84;98305.91;4476481;32;33845;-77
2023/08/29 05:22:39;;;;;;;;;;;;;;;24.44;67.68;98305.75;4463041;32;34448;-77
2023/08/29 05:25:08;;;;;;;3.22;1.92;;;;;;;24.24;68.87;98317.37;4462319;32;35058;-76
2023/08/29 05:27:37;;;;;;;3.75;1.80;;;;;;;24.81;66.68;98314.78;4466617;32;33075;-78
2023/08/29 05:30:09;;;;;;;2.55;1.60;;;;;;;25.00;65.25;98330.63;4467034;32;33079;-78
2023/08/29 05:32:39;;;;;;;3.00;1.77;;;;;;;24.98;65.43;98316.66;4463221;32;33624;-78
2023/08/29 05:35:08;;;;;;;3.30;1.50;;;;;;;25.08;65.38;98320.12;4468182;32;33843;-77
2023/08/29 05:37:37;;;;;;;2.80;1.35;;;;;;;25.04;65.88;98320.56;4467282;32;33072;-78
2023/08/29 05:40:08;;;;;;;3.33;1.52;;;;;;;25.20;66.49;98299.59;4472347;32;35143;-77
2023/08/29 05:42:37;;;;;;;4.93;2.75;;;;;;;25.41;66.47;98301.97;4478398;31;33426;-77
2023/08/29 05:45:07;;;;;;;3.70;2.10;;;;;;;25.63;64.68;98298.06;4471028;32;33654;-77
2023/08/29 05:47:40;;;;;;;3.17;1.83;;;;;;;25.47;65.17;98298.75;4473194;32;33423;-77
2023/08/29 05:50:09;;;;;;;2.95;1.60;;;;;;;25.03;67.86;98266.69;4479538;32;33437;-77
2023/08/29 05:52:38;;;;;;;4.95;1.77;;;;;;;25.55;64.64;98263.47;4482451;32;33848;-78
2023/08/29 05:55:08;;;;;;;6.78;2.08;;;;;;;25.45;65.01;98282.12;4467546;32;34269;-76
2023/08/29 05:57:37;;;;;;;3.83;2.10;;;;;;;25.54;64.62;98280.41;4468647;32;33911;-77
2023/08/29 06:00:09;;;;;;;4.30;2.42;;;;;;;25.45;64.98;98275.97;4470120;32;34681;-77
2023/08/29 06:02:43;;;;;;;2.90;1.52;;;;;;;25.11;66.92;98280.03;4467995;32;34443;-77
2023/08/29 06:05:12;;;;;;;3.00;1.85;;;;;;;24.87;67.54;98320.34;4462914;32;33540;-78
2023/08/29 06:07:41;;;;;;;7.43;2.92;;;;;;;24.71;69.05;98333.38;4459681;32;33130;-76
2023/08/29 06:10:10;;;;;;;3.35;1.42;;;;;;;24.65;71.09;98318.88;4458098;32;33951;-76
2023/08/29 06:12:40;;;;;;;4.60;1.75;;;;;;;24.60;70.23;98307.03;4463345;32;34184;-76
2023/08/29 06:15:09;;;;;;;6.55;2.80;;;;;;;24.62;70.18;98279.41;4467196;32;33426;-75
2023/08/29 06:17:38;;;;;;;4.75;2.60;;;;;;;24.62;68.45;98276.75;4470533;32;33414;-76
2023/08/29 06:20:11;;;;;;;3.45;1.80;;;;;;;24.30;70.57;98268.25;4466717;32;34606;-77
2023/08/29 06:22:40;;;;;;;3.37;1.67;;;;;;;24.25;70.52;98289.88;4458892;32;33720;-76
2023/08/29 06:25:09;;;;;;;4.03;1.98;;;;;;;24.20;71.58;98308.84;4468086;32;33507;-77
2023/08/29 06:27:38;;;;;;;3.92;2.03;;;;;;;24.07;73.39;98324.19;4473098;32;33492;-75
2023/08/29 06:30:12;;;;;;;4.53;2.90;;;;;;;23.78;76.30;98322.38;4461350;32;33236;-76
2023/08/29 06:32:41;;;;;;;7.80;2.83;;;;;;;23.99;75.74;98310.81;4474766;32;33850;-76
2023/08/29 06:35:12;;;;;;;4.18;1.87;;;;;;;24.09;75.52;98314.31;4471135;32;33728;-76
2023/08/29 06:37:41;;;;;;;3.65;2.15;;;;;;;23.97;75.50;98310.09;4465218;32;33287;-76
2023/08/29 06:40:10;;;;;;;4.28;2.15;;;;;;;24.22;73.25;98308.72;4458673;32;34608;-76
2023/08/29 06:42:39;;;;;;;2.97;1.40;;;;;;;24.15;74.13;98292.53;4465532;32;33073;-76
2023/08/29 06:45:09;;;;;;;2.95;1.60;;;;;;;24.35;73.32;98308.41;4466236;32;34111;-76
2023/08/29 06:47:38;;;;;;;3.50;2.00;;;;;;;24.44;72.02;98320.84;4468195;32;34012;-77
2023/08/29 06:50:08;;;;;;;5.10;1.98;;;;;;;24.53;70.19;98312.06;4468147;32;33458;-76
2023/08/29 06:52:38;;;;;;;4.83;1.87;;;;;;;24.45;69.81;98320.69;4468903;32;33532;-77
2023/08/29 06:55:09;;;;;;;4.87;2.72;;;;;;;24.44;69.93;98345.50;4458776;32;32904;-77
2023/08/29 06:57:38;;;;;;;3.85;1.80;;;;;;;24.45;70.12;98391.41;4473105;32;33337;-75
2023/08/29 07:00:10;;;;;;;3.58;1.92;;;;;;;24.29;70.80;98415.84;4465823;32;33285;-75
2023/08/29 07:02:39;;;;;;;2.92;1.80;;;;;;;24.37;69.56;98429.22;4458616;32;33744;-78
2023/08/29 07:05:08;;;;;;;4.50;1.70;;;;;;;23.64;71.80;98433.94;4462937;32;33935;-76
2023/08/29 07:07:42;;;;;;;4.28;1.98;;;;;;;23.70;68.47;98414.84;4464195;32;33280;-75
2023/08/29 07:10:10;;;;;;;4.95;2.55;;;;;;;23.31;70.78;98430.56;4465960;32;33446;-75
2023/08/29 07:12:40;;;;;;;3.72;2.22;;;;;;;23.46;71.17;98433.69;4465316;32;34559;-75
2023/08/29 07:15:09;;;;;;;3.78;1.95;;;;;;;23.27;72.64;98431.81;4463492;32;34269;-76
2023/08/29 07:17:38;;;;;;;2.58;1.65;;;;;;;23.17;73.23;98445.00;4467531;32;34094;-75
2023/08/29 07:20:10;;;;;;;6.10;2.92;;;;;;;22.95;74.22;98443.31;4466982;31;34528;-76
2023/08/29 07:22:42;;;;;;;3.12;2.15;;;;;;;23.09;73.56;98430.72;4469877;32;33731;-75
2023/08/29 07:25:13;;;;;;;3.53;2.17;;;;;;;23.16;73.58;98416.00;4460644;32;34495;-74
2023/08/29 07:27:42;;;;;;;5.55;2.67;;;;;;;23.10;74.22;98413.88;4468114;32;33759;-76
2023/08/29 07:30:14;;;;;;;4.45;2.55;;;;;;;23.43;72.65;98429.50;4463837;32;34299;-76
2023/08/29 07:32:44;;;;;;;6.22;2.20;;;;;;;23.58;72.17;98423.84;4466367;32;33725;-75
2023/08/29 07:35:14;;;;;;;1.98;1.37;;;;;;;23.60;72.40;98424.56;4470917;32;34290;-75
2023/08/29 07:37:43;;;;;;;6.43;2.05;;;;;;;23.72;72.00;98407.59;4464881;32;32855;-75
2023/08/29 07:40:14;;;;;;;4.95;2.12;;;;;;;23.80;71.59;98397.22;4463716;32;33486;-76
2023/08/29 07:42:42;;;;;;;3.80;1.85;;;;;;;23.78;72.14;98398.34;4465227;32;33725;-76
2023/08/29 07:45:11;;;;;;;3.60;2.15;;;;;;;23.83;70.67;98373.09;4470384;32;33879;-75
2023/08/29 07:47:40;;;;;;;4.28;2.08;;;;;;;23.79;70.18;98366.41;4464049;32;33467;-76
2023/08/29 07:50:09;;;;;;;3.80;1.95;;;;;;;23.71;70.18;98360.09;4462042;32;32981;-76
2023/08/29 07:52:38;;;;;;;3.62;1.90;;;;;;;23.57;71.55;98356.84;4457520;32;34427;-75
2023/08/29 07:55:10;;;;;;;3.83;1.77;;;;;;;23.44;73.47;98366.84;4459291;32;33761;-76
2023/08/29 07:57:40;;;;;;;3.20;1.98;;;;;;;23.39;74.40;98359.31;4470709;32;34006;-75
2023/08/29 08:00:11;;;;;;;4.78;2.45;;;;;;;23.73;72.75;98345.78;4464660;32;33751;-76
2023/08/29 08:02:40;;;;;;;;;;;;;;;23.81;72.21;98358.31;4458973;32;33695;-75
2023/08/29 08:05:10;;;;;;;5.90;2.25;;;;;;;23.88;71.84;98393.87;4462927;32;33853;-75
2023/08/29 08:07:39;;;;;;;3.47;1.83;;;;;;;23.80;72.97;98418.41;4464434;32;33493;-76
2023/08/29 08:10:10;;;;;;;4.15;1.75;;;;;;;23.87;72.06;98416.03;4466840;31;35303;-75
2023/08/29 08:12:41;;;;;;;3.12;1.98;;;;;;;23.83;72.05;98412.84;4466774;32;34605;-76
2023/08/29 08:15:10;;;;;;;3.40;2.05;;;;;;;23.71;72.44;98416.53;4463813;32;36136;-75
2023/08/29 08:17:39;;;;;;;3.50;1.60;;;;;;;23.21;75.07;98419.94;4464865;32;34906;-76
2023/08/29 08:20:09;;;;;;;3.58;2.08;;;;;;;23.48;73.85;98421.16;4468230;32;33198;-75
2023/08/29 08:22:38;;;;;;;4.07;2.17;;;;;;;23.46;73.90;98411.69;4464312;32;33981;-76
2023/08/29 08:25:09;;;;;;;4.85;2.72;;;;;;;23.66;72.74;98405.50;4461792;32;33345;-75
2023/08/29 08:27:41;;;;;;;4.90;2.12;;;;;;;23.54;73.60;98420.66;4459617;32;32962;-76
2023/08/29 08:30:10;;;;;;;5.15;2.60;;;;;;;23.45;74.48;98434.69;4469297;32;34943;-76
2023/08/29 08:32:40;;;;;;;4.10;1.92;;;;;;;23.33;75.31;98439.22;4463979;32;33646;-76
2023/08/29 08:35:10;;;;;;;3.35;1.58;;;;;;;23.00;76.86;98459.66;4461081;32;33747;-75
2023/08/29 08:37:39;;;;;;;3.65;2.45;;;;;;;22.92;78.29;98466.50;4464283;32;32996;-75
2023/08/29 08:40:10;;;;;;;3.65;1.83;;;;;;;22.44;80.48;98465.12;4466540;32;34386;-75
2023/08/29 08:42:44;;;;;;;3.85;2.15;;;;;;;22.60;78.68;98462.09;4468868;32;33473;-76
2023/08/29 08:45:14;;;;;;;3.87;2.22;;;;;;;22.44;79.64;98472.22;4465001;32;34859;-77
2023/08/29 08:47:43;;;;;;;5.87;2.75;;;;;;;22.51;79.70;98486.63;4463101;32;33031;-76
2023/08/29 08:50:12;;;;;;;3.33;1.83;;;;;;;22.70;78.64;98507.09;4469116;32;33732;-76
2023/08/29 08:52:41;;;;;;;3.35;2.08;;;;;;;22.46;79.37;98513.44;4463142;32;34013;-76
2023/08/29 08:55:10;;;;;;;5.75;1.85;;;;;;;22.48;78.70;98529.16;4458230;32;34668;-75
2023/08/29 08:57:41;;;;;;;6.47;1.75;;;;;;;22.60;77.64;98529.97;4461114;32;34003;-79
2023/08/29 09:00:10;;;;;;;4.65;2.10;;;;;;;22.40;77.72;98521.00;4463950;32;32938;-77
2023/08/29 09:02:39;;;;;;;5.95;2.28;;;;;;;22.06;80.25;98508.69;4467521;32;34008;-77
2023/08/29 09:05:09;;;;;;;4.22;2.10;;;;;;;21.90;81.10;98503.75;4470361;32;32179;-77
2023/08/29 09:07:41;;;;;;;2.00;1.42;;;;;;;22.10;80.39;98491.59;4465738;32;33224;-77
2023/08/29 09:10:11;;;;;;;3.87;1.90;;;;;;;22.03;80.42;98487.78;4463731;32;33485;-76
2023/08/29 09:12:48;;;;;;;2.42;1.33;;;;;;;22.05;80.55;98467.38;4468244;32;34775;-78
2023/08/29 09:15:19;;;;;;;5.45;2.72;;;;;;;22.11;80.03;98466.88;4471953;32;34375;-77
2023/08/29 09:17:48;;;;;;;6.00;2.40;;;;;;;21.86;80.73;98461.87;4463467;32;32573;-77
2023/08/29 09:20:18;;;;;;;4.57;2.08;;;;;;;21.50;83.61;98442.69;4459597;32;33873;-76
2023/08/29 09:22:47;;;;;;;3.03;1.85;;;;;;;21.42;84.53;98431.91;4461063;32;34761;-76
2023/08/29 09:25:16;;;;;;;4.00;2.08;;;;;;;21.31;85.55;98425.63;4466504;32;33634;-77
2023/08/29 09:27:46;;;;;;;5.68;2.25;;;;;;;21.69;83.35;98420.97;4464609;32;33247;-76
2023/08/29 09:30:18;;;;;;;4.12;2.30;;;;;;;21.70;83.21;98420.03;4459702;32;32906;-77
2023/08/29 09:32:48;;;;;;;2.87;2.03;;;;;;;21.77;84.17;98434.44;4459080;32;33869;-76
2023/08/29 09:35:19;;;;;;;4.65;2.35;;;;;;;21.48;85.97;98423.50;4466609;32;33908;-76
2023/08/29 09:37:52;;;;;;;3.78;1.85;;;;;;;21.64;85.83;98410.78;4473727;32;34097;-77
2023/08/29 09:40:22;;;;;;;5.53;2.42;;;;;;;21.51;87.23;98383.69;4467350;32;33871;-77
2023/08/29 09:42:55;;;;;;;4.62;2.58;;;;;;;21.30;89.12;98368.53;4465494;31;33108;-78
2023/08/29 09:45:25;;;;;;;2.83;1.67;;;;;;;21.39;89.76;98353.84;4466367;32;34285;-77
2023/08/29 09:47:54;;;;;;;3.00;1.77;;;;;;;21.76;87.44;98353.53;4467463;32;33558;-77
2023/08/29 09:50:23;;;;;;;6.10;2.72;;;;;;;21.65;89.17;98343.84;4477095;32;33809;-76
2023/08/29 09:52:53;;;;;;;4.87;2.00;;;;;;;21.39;89.16;98352.97;4468322;32;33578;-76
2023/08/29 09:55:24;;;;;;;5.40;2.60;;;;;;;21.91;87.70;98348.81;4466843;32;33618;-77
2023/08/29 09:57:54;;;;;;;3.45;1.52;;;;;;;21.44;89.59;98338.47;4469749;32;32789;-77
2023/08/29 10:00:25;;;;;;;3.95;1.83;;;;;;;21.56;89.44;98339.31;4477844;32;33300;-76
2023/08/29 10:02:57;;;;;;;4.37;2.28;;;;;;;21.68;88.26;98329.56;4464757;32;34088;-76
2023/08/29 10:05:29;;;;;;;2.83;1.60;;;;;;;21.77;87.88;98334.09;4465349;32;33549;-77
2023/08/29 10:08:01;;;;;;;6.18;2.87;;;;;;;21.78;88.15;98342.88;4461135;32;34119;-76
2023/08/29 10:10:30;;;;;;;6.00;2.95;;;;;;;21.95;87.30;98345.78;4460967;32;34071;-77
2023/08/29 10:12:59;;;;;;;5.07;2.53;;;;;;;21.62;88.99;98335.31;4466536;32;34153;-76
2023/08/29 10:15:30;;;;;;;3.87;2.12;;;;;;;21.43;88.89;98331.53;4469522;32;33728;-77
2023/08/29 10:17:59;;;;;;;5.07;2.85;;;;;;;21.36;91.20;98342.62;4463713;32;33363;-76
2023/08/29 10:20:29;;;;;;;4.35;2.10;;;;;;;21.50;90.61;98352.97;4463337;32;34775;-76
2023/08/29 10:22:59;;;;;;;7.43;2.70;;;;;;;21.77;88.39;98355.22;4468803;32;34304;-76
2023/08/29 10:25:29;;;;;;;4.00;2.30;;;;;;;21.61;88.95;98357.41;4468440;32;32351;-77
2023/08/29 10:27:58;;;;;;;4.55;2.60;;;;;;;21.31;90.86;98378.16;4462410;32;33249;-76
2023/08/29 10:30:30;;;;;;;3.87;2.15;;;;;;;21.22;91.12;98380.69;4467879;31;33596;-76
2023/08/29 10:33:00;;;;;;;4.85;2.05;;;;;;;21.37;90.11;98395.28;4466310;31;33652;-77
2023/08/29 10:35:33;;;;;;;3.83;1.90;;;;;;;21.38;90.91;98393.50;4481205;32;33763;-77
2023/08/29 10:38:02;;;;;;;4.05;2.12;;;;;;;21.22;90.81;98381.50;4471088;32;34135;-76
2023/08/29 10:40:36;;;;;;;5.75;2.85;;;;;;;21.11;90.58;98373.59;4470045;31;33017;-76
2023/08/29 10:43:17;;;;;;;4.87;2.10;;;;;;;21.20;90.84;98364.97;4469661;32;34548;-77
2023/08/29 10:45:51;;;;;;;3.83;2.20;;;;;;;21.46;88.13;98359.47;4464253;32;34088;-76
2023/08/29 10:48:21;;;;;;;4.28;2.42;;;;;;;21.61;86.93;98357.41;4468054;32;32133;-76
2023/08/29 10:51:12;;;;;;;6.20;2.33;;;;;;;21.71;87.60;98350.44;4467840;31;33400;-76
2023/08/29 10:53:43;;;;;;;;;;;;;;;22.18;85.64;98356.31;4465260;32;33751;-77
2023/08/29 10:56:13;;;;;;;3.25;1.75;;;;;;;22.04;86.60;98352.16;4470770;32;34136;-76
2023/08/29 10:58:42;;;;;;;4.93;2.72;;;;;;;22.39;85.81;98348.41;4468543;32;33452;-77
2023/08/29 11:01:31;;;;;;;4.05;2.22;;;;;;;22.82;83.69;98341.31;4479479;32;34265;-75
2023/08/29 11:04:03;;;;;;;4.72;2.20;;;;;;;22.45;82.49;98326.78;4480480;32;34547;-77
2023/08/29 11:06:51;;;;;;;3.70;1.65;;;;;;;22.89;80.67;98319.50;4472124;32;34625;-76
2023/08/29 11:09:21;;;;;;;4.07;2.12;;;;;;;22.82;81.91;98307.78;4466416;31;33293;-76
2023/08/29 11:12:07;;;;;;;3.35;1.83;;;;;;;23.13;79.41;98298.06;4475465;31;33939;-76
2023/08/29 11:14:52;;;;;;;4.43;2.55;;;;;;;23.04;79.83;98298.03;4464415;31;34551;-76
2023/08/29 11:17:25;;;;;;;4.18;2.45;;;;;;;23.16;79.25;98295.16;4469021;32;33521;-76
2023/08/29 11:19:55;;;;;;;4.00;1.90;;;;;;;23.22;77.51;98299.09;4463862;32;32761;-77
2023/08/29 11:22:25;;;;;;;3.60;1.92;;;;;;;23.51;76.05;98298.31;4468835;32;33383;-77
2023/08/29 11:24:55;;;;;;;4.05;2.25;;;;;;;23.43;74.96;98299.81;4472794;32;33550;-77
2023/08/29 11:27:24;;;;;;;4.03;2.28;;;;;;;23.94;75.05;98305.09;4462124;32;33668;-76
2023/08/29 11:29:55;;;;;;;4.80;2.00;;;;;;;24.36;73.08;98308.28;4469548;32;33466;-77
2023/08/29 11:32:51;;;;;;;4.03;1.73;;;;;;;24.76;69.03;98306.41;4467115;32;34534;-77
2023/08/29 11:35:21;;;;;;;3.72;2.15;;;;;;;24.52;72.17;98305.06;4460275;32;33503;-77
2023/08/29 11:37:50;;;;;;;3.95;1.98;;;;;;;24.65;71.50;98300.31;4460156;32;33438;-76
2023/08/29 11:40:20;;;;;;;4.03;1.73;;;;;;;24.83;70.85;98302.22;4460569;32;32982;-77
2023/08/29 11:43:10;;;;;;;5.27;2.40;;;;;;;24.91;71.87;98305.81;4465454;32;33664;-78
2023/08/29 11:46:01;;;;;;;2.72;1.50;;;;;;;25.09;71.57;98302.41;4476118;32;33674;-77
2023/08/29 11:48:33;;;;;;;2.83;1.52;;;;;;;25.48;69.14;98311.03;4468260;32;34335;-78
2023/08/29 11:51:03;;;;;;;4.87;2.08;;;;;;;25.18;69.18;98309.50;4464899;32;34129;-78